createdAt,value
2019-04-27T00:01:16.169Z,25.70
2019-04-27T00:03:48.050Z,25.60
2019-04-27T00:06:19.439Z,25.60
2019-04-27T00:08:50.777Z,25.60
2019-04-27T00:11:24.760Z,25.60
2019-04-27T00:13:54.437Z,25.60
2019-04-27T00:16:46.912Z,25.60
2019-04-27T00:19:31.808Z,25.50
2019-04-27T00:22:10.074Z,25.50
2019-04-27T00:24:39.822Z,25.50
2019-04-27T00:27:09.908Z,25.50
2019-04-27T00:29:39.912Z,25.50
2019-04-27T00:32:09.700Z,25.40
2019-04-27T00:34:39.396Z,25.40
2019-04-27T00:37:10.645Z,25.40
2019-04-27T00:39:53.519Z,25.40
2019-04-27T00:42:23.318Z,25.40
2019-04-27T00:44:54.177Z,25.40
2019-04-27T00:47:24.064Z,25.40
2019-04-27T00:49:54.935Z,25.30
2019-04-27T00:52:24.856Z,25.30
2019-04-27T00:54:54.492Z,25.30
2019-04-27T00:57:28.366Z,25.30
2019-04-27T01:00:16.143Z,25.20
2019-04-27T01:03:03.783Z,25.20
2019-04-27T01:05:33.897Z,25.20
2019-04-27T01:08:23.156Z,25.20
2019-04-27T01:10:53.766Z,25.20
2019-04-27T01:13:23.534Z,25.20
2019-04-27T01:15:54.160Z,25.20
2019-04-27T01:18:24.238Z,25.20
2019-04-27T01:20:53.940Z,25.20
2019-04-27T01:23:23.615Z,25.20
2019-04-27T01:26:11.451Z,25.20
2019-04-27T01:28:43.134Z,25.10
2019-04-27T01:31:14.533Z,25.10
2019-04-27T01:33:44.551Z,25.10
2019-04-27T01:36:14.254Z,25.10
2019-04-27T01:38:43.985Z,25.10
2019-04-27T01:41:13.738Z,25.10
2019-04-27T01:43:43.538Z,25.10
2019-04-27T01:46:13.219Z,25.10
2019-04-27T01:48:42.967Z,25.00
2019-04-27T01:51:12.806Z,25.00
2019-04-27T01:53:42.982Z,25.00
2019-04-27T01:56:12.689Z,25.00
2019-04-27T01:58:42.396Z,25.00
2019-04-27T02:01:18.867Z,25.00
2019-04-27T02:03:55.778Z,25.00
2019-04-27T02:06:26.961Z,25.00
2019-04-27T02:08:56.973Z,24.90
2019-04-27T02:11:26.678Z,24.90
2019-04-27T02:13:56.286Z,24.90
2019-04-27T02:16:26.078Z,24.90
2019-04-27T02:18:56.016Z,24.80
2019-04-27T02:21:25.729Z,24.80
2019-04-27T02:23:55.399Z,24.80
2019-04-27T02:26:25.127Z,24.80
2019-04-27T02:29:14.904Z,24.80
2019-04-27T02:32:04.113Z,24.70
2019-04-27T02:34:50.552Z,24.70
2019-04-27T02:37:20.714Z,24.70
2019-04-27T02:39:50.838Z,24.70
2019-04-27T02:42:22.491Z,24.60
2019-04-27T02:44:52.266Z,24.70
2019-04-27T02:47:22.048Z,24.60
2019-04-27T02:49:51.899Z,24.60
2019-04-27T02:52:23.198Z,24.60
2019-04-27T02:54:52.970Z,24.60
2019-04-27T02:57:22.655Z,24.60
2019-04-27T02:59:52.439Z,24.60
2019-04-27T03:02:23.867Z,24.60
2019-04-27T03:04:53.608Z,24.60
2019-04-27T03:07:23.234Z,24.60
2019-04-27T03:09:52.913Z,24.60
2019-04-27T03:12:24.237Z,24.60
2019-04-27T03:15:04.350Z,24.60
2019-04-27T03:17:41.815Z,24.50
2019-04-27T03:20:20.160Z,24.50
2019-04-27T03:22:51.942Z,24.50
2019-04-27T03:25:23.600Z,24.50
2019-04-27T03:27:55.765Z,24.50
2019-04-27T03:30:25.518Z,24.50
2019-04-27T03:32:56.129Z,24.50
2019-04-27T03:35:26.578Z,24.50
2019-04-27T03:37:56.252Z,24.40
2019-04-27T03:40:26.006Z,24.40
2019-04-27T03:42:59.545Z,24.40
2019-04-27T03:45:29.857Z,24.40
2019-04-27T03:48:00.893Z,24.40
2019-04-27T03:50:39.833Z,24.40
2019-04-27T03:53:26.262Z,24.30
2019-04-27T03:56:03.722Z,24.30
2019-04-27T03:58:35.076Z,24.30
2019-04-27T04:01:05.235Z,24.30
2019-04-27T04:03:35.025Z,24.20
2019-04-27T04:06:05.257Z,24.20
2019-04-27T04:08:35.211Z,24.20
2019-04-27T04:11:06.621Z,24.20
2019-04-27T04:13:43.778Z,24.20
2019-04-27T04:16:15.126Z,24.20
2019-04-27T04:19:01.302Z,24.20
2019-04-27T04:21:31.122Z,24.20
2019-04-27T04:24:01.452Z,24.10
2019-04-27T04:26:32.839Z,24.10
2019-04-27T04:29:02.632Z,24.10
2019-04-27T04:31:33.128Z,24.10
2019-04-27T04:34:03.222Z,24.10
2019-04-27T04:36:32.834Z,24.10
2019-04-27T04:39:02.714Z,24.10
2019-04-27T04:41:34.033Z,24.10
2019-04-27T04:44:21.893Z,24.10
2019-04-27T04:46:53.312Z,24.00
2019-04-27T04:49:42.700Z,24.00
2019-04-27T04:52:12.381Z,24.00
2019-04-27T04:54:42.261Z,24.00
2019-04-27T04:57:12.014Z,24.00
2019-04-27T04:59:43.818Z,24.00
2019-04-27T05:02:13.395Z,24.00
2019-04-27T05:04:43.183Z,24.00
2019-04-27T05:07:12.875Z,24.00
2019-04-27T05:09:42.581Z,24.00
2019-04-27T05:12:12.210Z,24.00
2019-04-27T05:14:41.915Z,24.00
2019-04-27T05:17:11.513Z,24.00
2019-04-27T05:19:41.241Z,24.00
2019-04-27T05:22:11.069Z,24.00
2019-04-27T05:24:40.708Z,24.00
2019-04-27T05:27:10.404Z,24.00
2019-04-27T05:29:40.082Z,24.00
2019-04-27T05:32:09.789Z,23.90
2019-04-27T05:34:39.539Z,23.90
2019-04-27T05:37:10.597Z,23.90
2019-04-27T05:39:40.388Z,23.90
2019-04-27T05:42:11.004Z,23.80
2019-04-27T05:45:21.390Z,23.80
2019-04-27T05:47:52.100Z,23.80
2019-04-27T05:50:22.045Z,23.70
2019-04-27T05:52:51.985Z,23.70
2019-04-27T05:55:21.702Z,23.70
2019-04-27T05:57:51.324Z,23.70
2019-04-27T06:00:21.777Z,23.90
2019-04-27T06:02:51.390Z,24.10
2019-04-27T06:05:22.687Z,24.20
2019-04-27T06:07:53.118Z,24.40
2019-04-27T06:10:22.920Z,24.50
2019-04-27T06:12:52.881Z,24.50
2019-04-27T06:15:23.029Z,24.40
2019-04-27T06:17:53.084Z,24.40
2019-04-27T06:20:22.843Z,24.30
2019-04-27T06:23:11.868Z,24.30
2019-04-27T06:25:41.590Z,24.20
2019-04-27T06:28:11.394Z,24.20
2019-04-27T06:30:41.184Z,24.20
2019-04-27T06:33:10.878Z,24.20
2019-04-27T06:35:40.611Z,24.20
2019-04-27T06:38:11.628Z,24.30
2019-04-27T06:40:41.314Z,24.30
2019-04-27T06:43:11.077Z,24.30
2019-04-27T06:46:00.125Z,24.30
2019-04-27T06:48:29.813Z,24.30
2019-04-27T06:51:03.613Z,24.30
2019-04-27T06:53:31.127Z,24.30
2019-04-27T06:56:01.118Z,24.30
2019-04-27T06:58:31.307Z,24.30
2019-04-27T07:01:01.295Z,24.30
2019-04-27T07:03:31.660Z,24.30
2019-04-27T07:06:01.336Z,24.40
2019-04-27T07:08:31.120Z,24.40
2019-04-27T07:11:00.772Z,24.40
2019-04-27T07:13:30.353Z,24.40
2019-04-27T07:16:00.114Z,24.40
2019-04-27T07:18:29.791Z,24.40
2019-04-27T07:20:59.595Z,24.40
2019-04-27T07:23:29.360Z,24.40
2019-04-27T07:25:59.855Z,24.40
2019-04-27T07:28:29.735Z,24.40
2019-04-27T07:30:59.546Z,24.50
2019-04-27T07:33:29.689Z,24.60
2019-04-27T07:35:59.351Z,24.60
2019-04-27T07:38:29.427Z,24.80
2019-04-27T07:40:59.199Z,24.80
2019-04-27T07:43:36.241Z,24.90
2019-04-27T07:46:28.121Z,25.00
2019-04-27T07:48:56.696Z,25.00
2019-04-27T07:51:33.657Z,25.10
2019-04-27T07:53:58.883Z,25.10
2019-04-27T07:56:29.137Z,25.10
2019-04-27T07:59:18.856Z,25.20
2019-04-27T08:01:49.197Z,25.20
2019-04-27T08:04:18.898Z,25.20
2019-04-27T08:06:49.636Z,25.20
2019-04-27T08:09:19.429Z,25.20
2019-04-27T08:11:49.497Z,25.20
2019-04-27T08:14:19.187Z,25.20
2019-04-27T08:16:48.824Z,25.20
2019-04-27T08:19:19.642Z,25.20
2019-04-27T08:21:49.984Z,25.20
2019-04-27T08:24:19.750Z,25.20
2019-04-27T08:27:02.966Z,25.20
2019-04-27T08:29:40.055Z,25.20
2019-04-27T08:32:26.788Z,25.20
2019-04-27T08:34:56.484Z,25.30
2019-04-27T08:37:26.251Z,25.40
2019-04-27T08:39:56.012Z,25.40
2019-04-27T08:42:26.292Z,25.50
2019-04-27T08:44:55.999Z,25.70
2019-04-27T08:47:25.731Z,25.90
2019-04-27T08:49:55.680Z,26.20
2019-04-27T08:52:25.396Z,26.50
2019-04-27T08:54:55.035Z,26.70
2019-04-27T08:57:24.737Z,26.80
2019-04-27T08:59:54.470Z,26.90
2019-04-27T09:02:24.094Z,27.00
2019-04-27T09:04:53.888Z,27.00
2019-04-27T09:07:29.458Z,27.10
2019-04-27T09:10:13.166Z,27.10
2019-04-27T09:12:53.312Z,27.10
2019-04-27T09:15:29.452Z,27.10
2019-04-27T09:18:00.682Z,27.10
2019-04-27T09:20:44.147Z,27.20
2019-04-27T09:23:13.856Z,27.20
2019-04-27T09:25:43.518Z,27.30
2019-04-27T09:28:13.313Z,27.30
2019-04-27T09:30:43.121Z,27.40
2019-04-27T09:33:12.920Z,27.50
2019-04-27T09:35:42.552Z,27.50
2019-04-27T09:38:12.421Z,27.60
2019-04-27T09:40:42.115Z,27.60
2019-04-27T09:43:12.224Z,27.60
2019-04-27T09:45:41.987Z,27.70
2019-04-27T09:48:11.724Z,27.60
2019-04-27T09:50:41.407Z,27.60
2019-04-27T09:53:11.070Z,27.60
2019-04-27T09:55:40.824Z,27.60
2019-04-27T09:58:10.511Z,27.70
2019-04-27T10:00:40.255Z,27.70
2019-04-27T10:03:11.310Z,27.70
2019-04-27T10:05:41.072Z,27.80
2019-04-27T10:08:10.724Z,27.80
2019-04-27T10:10:40.352Z,27.90
2019-04-27T10:13:09.986Z,28.10
2019-04-27T10:15:40.083Z,28.10
2019-04-27T10:18:09.823Z,28.10
2019-04-27T10:20:41.061Z,28.10
2019-04-27T10:23:10.887Z,28.20
2019-04-27T10:25:40.552Z,28.20
2019-04-27T10:28:10.578Z,28.30
2019-04-27T10:30:40.707Z,28.30
2019-04-27T10:33:10.354Z,28.30
2019-04-27T10:35:40.139Z,28.30
2019-04-27T10:38:09.760Z,28.40
2019-04-27T10:40:39.405Z,28.40
2019-04-27T10:43:09.106Z,28.50
2019-04-27T10:45:38.812Z,28.60
2019-04-27T10:48:08.565Z,28.60
2019-04-27T10:50:38.538Z,28.70
2019-04-27T10:53:08.253Z,28.70
2019-04-27T10:55:38.326Z,28.80
2019-04-27T10:58:08.324Z,28.90
2019-04-27T11:00:39.846Z,29.00
2019-04-27T11:03:09.600Z,29.10
2019-04-27T11:05:46.947Z,29.10
2019-04-27T11:08:16.803Z,29.20
2019-04-27T11:10:46.806Z,29.20
2019-04-27T11:13:16.580Z,29.30
2019-04-27T11:15:46.601Z,29.30
2019-04-27T11:18:16.752Z,29.40
2019-04-27T11:20:46.957Z,29.50
2019-04-27T11:23:16.677Z,29.60
2019-04-27T11:25:46.909Z,29.60
2019-04-27T11:28:16.631Z,29.60
2019-04-27T11:30:46.738Z,29.60
2019-04-27T11:33:16.419Z,29.70
2019-04-27T11:35:47.689Z,29.80
2019-04-27T11:38:17.351Z,29.80
2019-04-27T11:40:47.159Z,29.90
2019-04-27T11:43:16.753Z,29.90
2019-04-27T11:45:46.394Z,29.90
2019-04-27T11:48:16.177Z,30.00
2019-04-27T11:50:46.060Z,30.00
2019-04-27T11:53:22.855Z,30.10
2019-04-27T11:55:47.093Z,30.10
2019-04-27T11:58:16.702Z,30.20
2019-04-27T12:00:46.488Z,30.10
2019-04-27T12:03:16.619Z,30.10
2019-04-27T12:05:46.596Z,30.10
2019-04-27T12:08:16.359Z,30.10
2019-04-27T12:10:48.254Z,30.20
2019-04-27T12:13:18.042Z,30.20
2019-04-27T12:15:47.818Z,30.30
2019-04-27T12:18:17.449Z,30.30
2019-04-27T12:20:47.381Z,30.30
2019-04-27T12:23:17.018Z,30.30
2019-04-27T12:25:46.744Z,30.30
2019-04-27T12:28:18.026Z,30.30
2019-04-27T12:31:01.417Z,30.50
2019-04-27T12:33:31.204Z,30.60
2019-04-27T12:36:00.901Z,30.70
2019-04-27T12:38:30.592Z,30.80
2019-04-27T12:41:00.217Z,30.70
2019-04-27T12:43:29.899Z,30.70
2019-04-27T12:46:00.137Z,30.70
2019-04-27T12:48:30.270Z,30.70
2019-04-27T12:51:00.080Z,30.60
2019-04-27T12:53:47.718Z,30.50
2019-04-27T12:56:09.816Z,30.40
2019-04-27T12:58:52.933Z,30.30
2019-04-27T13:01:29.932Z,30.10
2019-04-27T13:03:59.609Z,30.00
2019-04-27T13:06:29.304Z,29.90
2019-04-27T13:08:59.072Z,29.70
2019-04-27T13:11:28.886Z,29.60
2019-04-27T13:13:58.489Z,29.50
2019-04-27T13:16:30.400Z,29.30
2019-04-27T13:18:59.659Z,29.20
2019-04-27T13:21:48.738Z,29.10
2019-04-27T13:24:18.506Z,29.00
2019-04-27T13:26:48.246Z,28.90
2019-04-27T13:29:18.022Z,28.80
2019-04-27T13:31:47.965Z,28.70
2019-04-27T13:34:18.085Z,28.60
2019-04-27T13:36:47.844Z,28.50
2019-04-27T13:39:17.610Z,28.50
2019-04-27T13:41:47.508Z,28.40
2019-04-27T13:44:17.134Z,28.30
2019-04-27T13:47:06.194Z,28.30
2019-04-27T13:49:37.715Z,28.20
2019-04-27T13:52:09.152Z,28.20
2019-04-27T13:54:38.790Z,28.10
2019-04-27T13:57:08.568Z,28.10
2019-04-27T13:59:38.283Z,28.10
2019-04-27T14:02:08.021Z,28.00
2019-04-27T14:04:37.651Z,28.00
2019-04-27T14:07:09.064Z,28.00
2019-04-27T14:09:39.289Z,28.00
2019-04-27T14:12:21.394Z,27.90
2019-04-27T14:14:51.441Z,27.90
2019-04-27T14:17:21.195Z,27.90
2019-04-27T14:19:50.914Z,27.80
2019-04-27T14:22:20.678Z,27.80
2019-04-27T14:24:50.772Z,27.70
2019-04-27T14:27:22.427Z,27.70
2019-04-27T14:29:52.203Z,27.70
2019-04-27T14:32:22.010Z,27.70
2019-04-27T14:34:51.701Z,27.70
2019-04-27T14:37:21.394Z,27.80
2019-04-27T14:39:51.165Z,27.80
2019-04-27T14:42:20.983Z,27.80
2019-04-27T14:44:50.756Z,27.90
2019-04-27T14:47:20.452Z,27.90
2019-04-27T14:49:50.209Z,28.00
2019-04-27T14:52:19.881Z,28.00
2019-04-27T14:54:50.909Z,28.00
2019-04-27T14:57:20.802Z,28.00
2019-04-27T14:59:51.315Z,28.00
2019-04-27T15:02:21.120Z,28.00
2019-04-27T15:04:50.982Z,28.00
2019-04-27T15:07:20.676Z,28.00
2019-04-27T15:09:54.407Z,28.00
2019-04-27T15:12:24.443Z,28.00
2019-04-27T15:14:57.191Z,28.00
2019-04-27T15:17:26.566Z,28.00
2019-04-27T15:20:00.674Z,27.90
2019-04-27T15:22:31.435Z,27.90
2019-04-27T15:25:13.032Z,27.90
2019-04-27T15:27:37.365Z,27.80
2019-04-27T15:30:11.484Z,27.80
2019-04-27T15:32:42.379Z,27.80
2019-04-27T15:35:13.779Z,27.80
2019-04-27T15:37:48.242Z,27.70
2019-04-27T15:40:29.533Z,27.70
2019-04-27T15:43:00.867Z,27.70
2019-04-27T15:45:30.616Z,27.70
2019-04-27T15:48:00.308Z,27.60
2019-04-27T15:50:32.160Z,27.60
2019-04-27T15:53:03.010Z,27.60
2019-04-27T15:55:36.800Z,27.60
2019-04-27T15:58:03.968Z,27.60
2019-04-27T16:00:33.723Z,27.60
2019-04-27T16:03:03.397Z,27.50
2019-04-27T16:05:35.854Z,27.50
2019-04-27T16:08:05.618Z,27.50
2019-04-27T16:10:37.366Z,27.40
2019-04-27T16:13:13.435Z,27.40
2019-04-27T16:15:38.782Z,27.30
2019-04-27T16:18:08.861Z,27.20
2019-04-27T16:20:38.959Z,27.20
2019-04-27T16:23:08.920Z,27.10
2019-04-27T16:25:48.273Z,27.10
2019-04-27T16:28:13.385Z,27.10
2019-04-27T16:30:45.700Z,27.00
2019-04-27T16:33:15.381Z,27.00
2019-04-27T16:35:45.185Z,26.90
2019-04-27T16:38:34.863Z,26.90
2019-04-27T16:41:04.938Z,26.80
2019-04-27T16:43:34.611Z,26.80
2019-04-27T16:46:05.503Z,26.80
2019-04-27T16:48:36.326Z,26.70
2019-04-27T16:51:06.106Z,26.70
2019-04-27T16:53:38.202Z,26.70
2019-04-27T16:56:14.247Z,26.60
2019-04-27T16:58:39.843Z,26.60
2019-04-27T17:01:30.719Z,26.60
2019-04-27T17:04:00.664Z,26.50
2019-04-27T17:06:30.432Z,26.50
2019-04-27T17:09:05.534Z,26.50
2019-04-27T17:11:31.520Z,26.50
2019-04-27T17:14:08.578Z,26.40
2019-04-27T17:16:40.027Z,26.40
2019-04-27T17:19:28.666Z,26.40
2019-04-27T17:21:59.266Z,26.40
2019-04-27T17:27:29.177Z,26.30
2019-04-27T17:30:01.408Z,26.40
2019-04-27T17:32:42.967Z,26.50
2019-04-27T17:35:14.895Z,26.50
2019-04-27T17:37:44.061Z,26.50
2019-04-27T17:40:15.418Z,26.50
2019-04-27T17:42:45.348Z,26.60
2019-04-27T17:45:15.388Z,26.60
2019-04-27T17:47:45.096Z,26.70
2019-04-27T17:50:18.363Z,26.70
2019-04-27T17:52:48.436Z,26.70
2019-04-27T17:55:24.149Z,26.60
2019-04-27T17:57:50.444Z,26.60
2019-04-27T18:00:20.284Z,26.60
2019-04-27T18:03:12.678Z,26.60
2019-04-27T18:05:43.804Z,26.60
2019-04-27T18:08:13.638Z,26.40
2019-04-27T18:10:44.797Z,26.30
2019-04-27T18:13:33.859Z,26.00
2019-04-27T18:16:03.801Z,25.90
2019-04-27T18:18:40.985Z,25.60
2019-04-27T18:21:11.940Z,25.50
2019-04-27T18:23:55.417Z,25.40
2019-04-27T18:26:49.276Z,25.30
2019-04-27T18:29:14.570Z,25.30
2019-04-27T18:31:46.341Z,25.30
2019-04-27T18:34:17.331Z,25.20
2019-04-27T18:36:47.666Z,25.10
2019-04-27T18:39:18.228Z,25.00
2019-04-27T18:41:50.554Z,25.00
2019-04-27T18:44:23.936Z,25.00
2019-04-27T18:46:53.798Z,24.90
2019-04-27T18:49:38.602Z,24.80
2019-04-27T18:52:26.624Z,24.60
2019-04-27T18:54:56.390Z,24.70
2019-04-27T18:57:27.954Z,24.70
2019-04-27T18:59:58.289Z,24.60
2019-04-27T19:02:28.834Z,24.50
2019-04-27T19:04:58.631Z,24.50
2019-04-27T19:07:29.014Z,24.50
2019-04-27T19:09:59.121Z,24.40
2019-04-27T19:12:28.895Z,24.00
2019-04-27T19:14:59.917Z,23.90
2019-04-27T19:17:29.920Z,23.90
2019-04-27T19:19:59.843Z,23.90
2019-04-27T19:22:29.989Z,23.80
2019-04-27T19:24:59.915Z,23.80
2019-04-27T19:27:34.294Z,23.80
2019-04-27T19:30:16.754Z,23.90
2019-04-27T19:32:46.511Z,23.90
2019-04-27T19:35:16.232Z,23.90
2019-04-27T19:37:46.038Z,23.90
2019-04-27T19:40:15.963Z,23.90
2019-04-27T19:42:45.640Z,23.90
2019-04-27T19:45:20.804Z,23.90
2019-04-27T19:47:50.844Z,23.90
2019-04-27T19:50:20.542Z,23.90
2019-04-27T19:52:50.379Z,23.90
2019-04-27T19:55:20.118Z,23.90
2019-04-27T19:57:49.909Z,23.90
2019-04-27T20:00:39.725Z,24.00
2019-04-27T20:03:11.187Z,24.00
2019-04-27T20:05:40.859Z,24.20
2019-04-27T20:08:15.820Z,24.20
2019-04-27T20:10:48.216Z,24.20
2019-04-27T20:13:17.212Z,24.10
2019-04-27T20:16:06.300Z,24.10
2019-04-27T20:18:35.984Z,24.10
2019-04-27T20:21:05.600Z,24.10
2019-04-27T20:23:35.391Z,24.10
2019-04-27T20:26:05.235Z,24.10
2019-04-27T20:28:34.863Z,24.00
2019-04-27T20:31:04.680Z,24.00
2019-04-27T20:33:34.391Z,24.00
2019-04-27T20:36:04.173Z,24.00
2019-04-27T20:38:33.982Z,24.00
2019-04-27T20:41:04.063Z,24.00
2019-04-27T20:43:33.867Z,24.00
2019-04-27T20:46:03.687Z,24.00
2019-04-27T20:48:33.414Z,24.00
2019-04-27T20:51:03.106Z,24.00
2019-04-27T20:53:41.851Z,24.00
2019-04-27T20:56:11.677Z,23.90
2019-04-27T20:58:41.387Z,23.90
2019-04-27T21:01:11.194Z,23.80
2019-04-27T21:03:42.652Z,23.80
2019-04-27T21:06:25.768Z,23.80
2019-04-27T21:08:55.515Z,23.80
2019-04-27T21:11:27.211Z,23.80
2019-04-27T21:13:57.449Z,23.80
2019-04-27T21:16:27.202Z,23.80
2019-04-27T21:18:56.867Z,23.90
2019-04-27T21:21:26.570Z,23.90
2019-04-27T21:23:57.296Z,23.90
2019-04-27T21:26:27.058Z,23.90
2019-04-27T21:28:56.770Z,23.90
2019-04-27T21:31:26.435Z,23.90
2019-04-27T21:33:56.135Z,23.90
2019-04-27T21:36:25.978Z,23.80
2019-04-27T21:38:55.645Z,23.80
2019-04-27T21:41:25.768Z,23.80
2019-04-27T21:43:55.786Z,23.80
2019-04-27T21:46:25.800Z,23.80
2019-04-27T21:48:56.866Z,23.70
2019-04-27T21:51:28.557Z,23.70
2019-04-27T21:54:03.210Z,23.70
2019-04-27T21:56:33.183Z,23.70
2019-04-27T21:59:14.328Z,23.70
2019-04-27T22:01:45.203Z,23.60
2019-04-27T22:04:15.369Z,23.60
2019-04-27T22:06:45.462Z,23.60
2019-04-27T22:09:16.063Z,23.50
2019-04-27T22:11:45.963Z,23.50
2019-04-27T22:14:16.045Z,23.50
2019-04-27T22:16:45.997Z,23.50
2019-04-27T22:19:15.889Z,23.50
2019-04-27T22:21:45.562Z,23.50
2019-04-27T22:24:22.656Z,23.50
2019-04-27T22:26:52.802Z,23.40
2019-04-27T22:29:22.480Z,23.40
2019-04-27T22:31:52.379Z,23.40
2019-04-27T22:34:22.132Z,23.40
2019-04-27T22:36:51.812Z,23.40
2019-04-27T22:39:23.141Z,23.40
2019-04-27T22:42:12.097Z,23.50
2019-04-27T22:44:44.172Z,23.60
2019-04-27T22:47:13.973Z,23.80
2019-04-27T22:49:43.696Z,23.90
2019-04-27T22:52:13.432Z,23.90
2019-04-27T22:54:43.012Z,24.00
2019-04-27T22:57:14.287Z,24.10
2019-04-27T22:59:54.660Z,24.20
2019-04-27T23:02:31.913Z,24.20
2019-04-27T23:05:02.884Z,24.20
2019-04-27T23:07:32.502Z,24.30
2019-04-27T23:10:02.229Z,24.30
2019-04-27T23:12:31.914Z,24.30
2019-04-27T23:15:01.716Z,24.40
2019-04-27T23:17:42.298Z,24.40
2019-04-27T23:20:12.029Z,24.40
2019-04-27T23:22:41.752Z,24.40
2019-04-27T23:25:11.729Z,24.50
2019-04-27T23:27:41.464Z,24.50
2019-04-27T23:30:12.165Z,24.50
2019-04-27T23:32:46.017Z,24.50
2019-04-27T23:35:15.840Z,24.50
2019-04-27T23:37:45.647Z,24.50
2019-04-27T23:40:16.052Z,24.50
2019-04-27T23:42:45.744Z,24.50
2019-04-27T23:45:15.603Z,24.60
2019-04-27T23:47:45.251Z,24.60
2019-04-27T23:50:15.132Z,24.60
2019-04-27T23:52:58.684Z,24.60
2019-04-27T23:55:30.985Z,24.60
2019-04-27T23:58:00.699Z,24.60
